Time;durP1;ratioP1;P1;durP2;ratioP2;P2;SDS_P1;SDS_P2;PMS_P1;PMS_P2;Temp;Humidity;BMP_temperature;BMP_pressure;BME280_temperature;BME280_humidity;BME280_pressure;Samples;Min_cycle;Max_cycle;Signal;HPM_P1;HPM_P2
2021/06/02 00:01:56;;;;;;;7.85;5.80;;;;;;;4.87;92.57;93378.00;1790228;79;21637;-80
2021/06/02 00:04:26;;;;;;;15.32;6.50;;;;;;;4.88;92.55;93380.89;1790176;80;21120;-80
2021/06/02 00:06:57;;;;;;;11.33;5.78;;;;;;;4.88;92.64;93378.20;1791017;80;20955;-78
2021/06/02 00:09:24;;;;;;;9.90;5.92;;;;;;;4.91;92.55;93380.17;1785889;79;21065;-82
2021/06/02 00:11:55;;;;;;;8.75;6.22;;;;;;;4.93;92.49;93380.61;1815900;77;21017;-80
2021/06/02 00:14:35;;;;;;;9.08;6.40;;;;;;;4.95;92.36;93378.31;1791373;80;20950;-84
2021/06/02 00:17:03;;;;;;;12.20;6.70;;;;;;;4.95;92.40;93380.23;1793395;78;21574;-84
2021/06/02 00:19:34;;;;;;;10.23;6.83;;;;;;;4.93;92.26;93373.88;1794403;78;21052;-84
2021/06/02 00:22:02;;;;;;;11.03;5.10;;;;;;;4.94;92.37;93377.34;1777499;80;20953;-84
2021/06/02 00:24:30;;;;;;;6.53;3.75;;;;;;;4.95;92.27;93376.20;1815664;79;21099;-84
2021/06/02 00:27:02;;;;;;;8.75;3.92;;;;;;;4.96;92.21;93375.05;1796770;79;21045;-84
2021/06/02 00:29:34;;;;;;;5.97;3.77;;;;;;;4.97;92.23;93377.41;1789558;78;21714;-84
2021/06/02 00:32:04;;;;;;;8.28;3.40;;;;;;;4.94;92.16;93375.42;1789352;80;21045;-84
2021/06/02 00:34:30;;;;;;;6.25;4.22;;;;;;;4.93;92.30;93374.42;1789025;80;21600;-84
2021/06/02 00:36:58;;;;;;;5.53;3.20;;;;;;;4.95;92.25;93370.23;1789859;80;21006;-84
2021/06/02 00:39:26;;;;;;;6.60;3.12;;;;;;;4.99;92.30;93375.69;1790242;80;21101;-83
2021/06/02 00:41:53;;;;;;;4.60;2.87;;;;;;;5.04;92.21;93366.73;1790083;80;21120;-83
2021/06/02 00:44:21;;;;;;;4.22;2.58;;;;;;;5.05;91.76;93370.98;1789582;80;21001;-83
2021/06/02 00:46:49;;;;;;;3.25;2.52;;;;;;;5.03;91.86;93368.44;1789304;79;21034;-83
2021/06/02 00:49:23;;;;;;;4.08;2.40;;;;;;;5.04;91.91;93372.67;1790444;80;21065;-83
2021/06/02 00:51:59;;;;;;;4.15;2.30;;;;;;;5.05;91.97;93371.56;1789568;80;20967;-83
2021/06/02 00:54:31;;;;;;;2.72;2.25;;;;;;;5.06;91.84;93371.19;1790286;80;21539;-83
2021/06/02 00:57:17;;;;;;;3.12;2.37;;;;;;;5.03;91.82;93369.78;1789380;80;20994;-82
2021/06/02 01:00:08;;;;;;;2.08;1.87;;;;;;;5.03;91.80;93373.25;1790489;80;21076;-84
2021/06/02 01:02:35;;;;;;;3.83;3.02;;;;;;;4.99;91.66;93371.07;1789246;80;21033;-84
2021/06/02 01:05:03;;;;;;;5.87;3.40;;;;;;;4.93;92.04;93372.53;1789152;80;21081;-84
2021/06/02 01:07:30;;;;;;;5.15;4.12;;;;;;;4.90;92.26;93369.20;1789010;79;21167;-83
2021/06/02 01:09:57;;;;;;;6.60;4.60;;;;;;;4.90;92.40;93367.08;1789177;80;21034;-83
2021/06/02 01:12:27;;;;;;;8.40;5.08;;;;;;;4.90;92.43;93371.89;1779425;80;21060;-83
2021/06/02 01:14:55;;;;;;;7.15;4.87;;;;;;;4.85;92.46;93369.48;1788768;80;21033;-83
2021/06/02 01:17:30;;;;;;;10.25;4.90;;;;;;;4.83;92.59;93364.47;1790766;80;21552;-84
2021/06/02 01:19:59;;;;;;;5.10;4.47;;;;;;;4.78;92.29;93370.16;1791089;79;21116;-84
2021/06/02 01:22:33;;;;;;;8.30;5.05;;;;;;;4.76;92.81;93372.42;1790002;80;21081;-83
2021/06/02 01:25:00;;;;;;;9.23;5.53;;;;;;;4.78;92.96;93365.34;1789617;80;21524;-83
2021/06/02 01:27:26;;;;;;;10.80;5.67;;;;;;;4.75;92.87;93369.53;1731606;79;21582;-84
2021/06/02 01:29:53;;;;;;;11.20;5.33;;;;;;;4.74;92.97;93367.98;1790201;80;20946;-83
2021/06/02 01:33:06;;;;;;;8.68;5.45;;;;;;;4.73;93.03;93373.71;1789880;78;21105;-84
2021/06/02 01:35:53;;;;;;;9.68;5.25;;;;;;;4.73;93.03;93373.71;1790196;80;21416;-83
2021/06/02 01:38:42;;;;;;;6.15;4.30;;;;;;;4.71;93.65;93374.08;1790510;79;21045;-83
2021/06/02 01:41:59;;;;;;;9.68;5.33;;;;;;;4.70;93.63;93381.16;1790324;80;20958;-83
2021/06/02 01:45:00;;;;;;;14.53;5.30;;;;;;;4.68;93.74;93374.79;1790020;80;21108;-83
2021/06/02 01:47:32;;;;;;;10.18;6.03;;;;;;;4.69;93.73;93377.69;1790377;79;21098;-83
2021/06/02 01:50:41;;;;;;;18.75;10.08;;;;;;;4.66;93.75;93374.36;1789037;79;21065;-83
2021/06/02 01:53:43;;;;;;;8.48;6.20;;;;;;;4.67;93.96;93375.94;1790609;80;21022;-83
2021/06/02 01:56:30;;;;;;;13.22;6.10;;;;;;;4.67;93.96;93375.94;1790041;80;20994;-85
2021/06/02 01:59:29;;;;;;;8.25;5.60;;;;;;;4.63;93.67;93377.22;1790112;80;20997;-84
2021/06/02 02:02:38;;;;;;;8.88;4.85;;;;;;;4.63;93.97;93374.52;1790119;80;21110;-83
2021/06/02 02:05:48;;;;;;;8.43;4.47;;;;;;;4.71;94.13;93372.73;1790055;80;21046;-83
2021/06/02 02:08:29;;;;;;;5.50;3.95;;;;;;;4.81;93.94;93368.64;1779281;80;20998;-83
2021/06/02 02:11:38;;;;;;;6.08;3.35;;;;;;;4.82;93.52;93375.04;1789650;80;21084;-83
2021/06/02 02:14:38;;;;;;;4.65;3.22;;;;;;;4.82;93.52;93375.04;1790294;80;21039;-83
2021/06/02 02:17:51;;;;;;;4.65;3.17;;;;;;;4.82;93.29;93376.39;1789961;80;21501;-83
2021/06/02 02:20:25;;;;;;;4.53;3.62;;;;;;;4.80;93.08;93371.91;1790426;80;21033;-85
2021/06/02 02:23:16;;;;;;;5.25;3.70;;;;;;;4.80;93.08;93371.91;1789984;80;20959;-83
2021/06/02 02:26:18;;;;;;;8.65;4.90;;;;;;;4.83;93.03;93370.42;1789672;80;21089;-84
2021/06/02 02:29:19;;;;;;;5.72;4.65;;;;;;;4.83;93.03;93370.42;1790511;80;21034;-83
2021/06/02 02:32:24;;;;;;;6.40;4.15;;;;;;;4.81;93.04;93365.95;1773880;80;21154;-83
2021/06/02 02:35:12;;;;;;;10.60;3.70;;;;;;;4.77;93.02;93368.59;1756346;79;21011;-83
2021/06/02 02:37:56;;;;;;;5.22;4.03;;;;;;;4.79;93.33;93373.06;1789914;80;20951;-83
2021/06/02 02:41:03;;;;;;;5.20;3.67;;;;;;;4.80;93.30;93380.00;1783653;79;21464;-84
2021/06/02 02:43:41;;;;;;;6.12;3.55;;;;;;;4.82;93.12;93378.30;1783887;80;21045;-84
2021/06/02 02:46:27;;;;;;;4.87;3.37;;;;;;;4.80;93.13;93380.56;1789724;79;21131;-85
2021/06/02 02:48:56;;;;;;;3.25;2.95;;;;;;;4.68;93.28;93376.71;1789455;80;21445;-82
2021/06/02 02:51:46;;;;;;;5.08;4.40;;;;;;;4.68;93.28;93376.71;1788997;80;21026;-81
2021/06/02 02:54:19;;;;;;;6.17;4.78;;;;;;;4.67;93.41;93379.98;1788830;79;21619;-83
2021/06/02 02:56:54;;;;;;;7.15;5.60;;;;;;;4.65;93.62;93372.80;1789726;80;21328;-83
2021/06/02 02:59:55;;;;;;;8.83;6.10;;;;;;;4.67;93.68;93377.28;1789203;80;21109;-83
2021/06/02 03:02:42;;;;;;;9.90;5.80;;;;;;;4.70;93.79;93373.88;1788799;80;21038;-83
2021/06/02 03:05:17;;;;;;;6.72;5.20;;;;;;;4.71;93.82;93374.66;1789046;80;21546;-83
2021/06/02 03:07:51;;;;;;;9.08;5.72;;;;;;;4.75;93.92;93375.48;1789481;80;21619;-83
2021/06/02 03:10:19;;;;;;;8.70;5.50;;;;;;;4.73;93.96;93379.88;1790382;80;21019;-82
2021/06/02 03:12:57;;;;;;;8.85;5.65;;;;;;;4.72;94.16;93381.02;1731864;80;21571;-83
2021/06/02 03:15:47;;;;;;;8.80;5.97;;;;;;;4.71;94.19;93383.51;1790082;79;21651;-83
2021/06/02 03:18:45;;;;;;;6.97;5.78;;;;;;;4.70;94.34;93381.95;1788901;80;21042;-83
2021/06/02 03:21:45;;;;;;;9.43;6.58;;;;;;;4.70;94.60;93381.95;1788927;79;21013;-84
2021/06/02 03:24:46;;;;;;;9.48;5.17;;;;;;;4.73;94.56;93382.56;1789313;80;21088;-84
2021/06/02 03:27:36;;;;;;;10.98;5.60;;;;;;;4.75;94.62;93387.61;1789269;78;21089;-83
2021/06/02 03:30:16;;;;;;;9.23;6.70;;;;;;;4.77;94.68;93378.59;1789744;80;20927;-83
2021/06/02 03:32:55;;;;;;;9.48;6.12;;;;;;;4.76;94.57;93387.81;1790302;80;21045;-84
2021/06/02 03:35:52;;;;;;;8.58;5.80;;;;;;;4.80;94.74;93395.38;1790114;79;21032;-83
2021/06/02 03:39:01;;;;;;;9.23;5.95;;;;;;;4.85;94.84;93397.77;1789584;80;21005;-84
2021/06/02 03:42:10;;;;;;;10.58;6.35;;;;;;;4.85;94.84;93397.77;1790484;80;21511;-84
2021/06/02 03:44:57;;;;;;;10.35;6.75;;;;;;;4.86;94.82;93401.47;1789984;80;20994;-84
2021/06/02 03:48:03;;;;;;;10.23;7.17;;;;;;;4.84;94.54;93397.00;1789566;79;21065;-84
2021/06/02 03:50:34;;;;;;;7.62;5.90;;;;;;;4.85;94.73;93399.92;1789490;80;21295;-84
2021/06/02 03:53:32;;;;;;;14.10;6.87;;;;;;;4.88;94.77;93405.91;1789267;80;20962;-84
2021/06/02 03:56:29;;;;;;;10.45;6.62;;;;;;;4.91;94.84;93407.70;1789915;78;21086;-85
2021/06/02 03:59:31;;;;;;;10.68;5.97;;;;;;;4.94;94.86;93405.06;1789785;80;21026;-84
2021/06/02 04:02:01;;;;;;;7.03;5.58;;;;;;;5.00;94.97;93406.88;1785169;80;21029;-84
2021/06/02 04:04:33;;;;;;;10.50;5.75;;;;;;;5.05;94.86;93410.06;1780843;80;21508;-84
2021/06/02 04:07:10;;;;;;;8.95;6.25;;;;;;;5.10;94.64;93411.67;1790506;80;21481;-84
2021/06/02 04:10:05;;;;;;;9.95;5.83;;;;;;;5.10;94.89;93408.41;1790108;80;21743;-84
2021/06/02 04:13:13;;;;;;;11.05;6.97;;;;;;;5.15;94.96;93414.05;1785486;79;21562;-84
2021/06/02 04:15:43;;;;;;;11.05;6.95;;;;;;;5.19;94.92;93420.31;1786714;80;21053;-85
2021/06/02 04:18:09;;;;;;;7.28;6.05;;;;;;;5.22;94.97;93414.75;1781226;79;21034;-84
2021/06/02 04:20:36;;;;;;;8.55;5.78;;;;;;;5.24;94.98;93421.34;1772064;79;21110;-83
2021/06/02 04:23:03;;;;;;;6.97;5.62;;;;;;;5.29;95.22;93422.95;1762474;79;21797;-84
2021/06/02 04:25:31;;;;;;;7.70;6.15;;;;;;;5.32;95.49;93418.19;1816036;79;21108;-84
2021/06/02 04:28:01;;;;;;;7.17;4.95;;;;;;;5.36;95.64;93418.45;1780460;80;21015;-84
2021/06/02 04:30:30;;;;;;;7.42;5.10;;;;;;;5.42;95.84;93420.28;1770036;79;21031;-85
2021/06/02 04:32:59;;;;;;;7.62;5.40;;;;;;;5.46;95.74;93419.77;1754802;80;21045;-85
2021/06/02 04:35:25;;;;;;;7.50;5.97;;;;;;;5.51;95.76;93420.02;1770404;80;21919;-84
2021/06/02 04:37:52;;;;;;;13.32;7.95;;;;;;;5.59;95.68;93419.75;1744914;79;20987;-84
2021/06/02 04:40:18;;;;;;;11.00;8.23;;;;;;;5.68;95.70;93414.66;1801874;79;21018;-84
2021/06/02 04:42:44;;;;;;;8.08;6.75;;;;;;;5.72;95.34;93412.82;1833108;77;21050;-84
2021/06/02 04:45:18;;;;;;;35.83;21.10;;;;;;;5.76;95.27;93416.34;1847799;77;21443;-84
2021/06/02 04:47:46;;;;;;;21.25;14.80;;;;;;;5.80;95.04;93415.82;1801962;77;21121;-84
2021/06/02 04:50:32;;;;;;;8.93;6.75;;;;;;;5.84;94.96;93414.72;1753944;80;21083;-85
2021/06/02 04:53:19;;;;;;;10.08;5.85;;;;;;;5.90;94.96;93422.48;1789051;80;20972;-83
2021/06/02 04:56:03;;;;;;;9.05;6.47;;;;;;;5.94;94.71;93426.84;1778503;80;21552;-83
2021/06/02 04:58:43;;;;;;;9.37;6.77;;;;;;;6.01;94.61;93430.96;1773598;81;21571;-83
2021/06/02 05:04:45;;;;;;;13.30;7.90;;;;;;;6.12;94.71;93420.88;1771317;81;21520;-83
2021/06/02 05:07:40;;;;;;;8.83;7.37;;;;;;;6.20;94.65;93439.50;1797318;79;21109;-82
2021/06/02 05:10:47;;;;;;;9.08;5.92;;;;;;;6.27;94.52;93432.06;1795535;78;21170;-82
2021/06/02 05:16:49;;;;;;;9.78;4.70;;;;;;;6.41;94.31;93436.88;1788361;80;21567;-82
2021/06/02 05:22:13;;;;;;;10.65;7.00;;;;;;;6.56;93.48;93434.54;1773473;78;21060;-83
2021/06/02 05:25:15;;;;;;;9.48;7.65;;;;;;;6.62;93.56;93438.48;1766626;80;21000;-82
2021/06/02 05:27:58;;;;;;;7.25;5.92;;;;;;;6.68;93.71;93441.61;1828775;76;21027;-82
2021/06/02 05:30:47;;;;;;;8.30;5.60;;;;;;;6.72;94.01;93438.37;1797885;77;21849;-83
2021/06/02 05:33:42;;;;;;;5.87;4.45;;;;;;;6.76;94.08;93443.24;1799184;78;20940;-83
2021/06/02 05:36:36;;;;;;;6.33;5.23;;;;;;;6.80;92.66;93444.05;1802596;78;21079;-84
2021/06/02 05:39:36;;;;;;;5.87;4.78;;;;;;;6.86;92.71;93445.29;1729270;80;21047;-83
2021/06/02 05:42:34;;;;;;;6.37;5.22;;;;;;;6.91;92.11;93440.89;1754369;81;21059;-83
2021/06/02 05:45:48;;;;;;;10.82;5.05;;;;;;;6.98;92.04;93446.95;1754162;80;21033;-83
2021/06/02 05:49:07;;;;;;;5.95;4.90;;;;;;;7.03;91.70;93446.60;1748397;80;21033;-82
2021/06/02 05:51:51;;;;;;;6.35;4.03;;;;;;;7.12;91.19;93454.43;1760195;80;21067;-83
2021/06/02 05:55:14;;;;;;;7.20;4.33;;;;;;;7.23;90.69;93450.67;1745293;80;21514;-84
2021/06/02 05:58:25;;;;;;;10.72;4.45;;;;;;;7.35;90.04;93452.90;1721849;82;21052;-84
2021/06/02 06:01:38;;;;;;;8.88;4.65;;;;;;;7.47;89.62;93454.73;1777310;79;21703;-84
2021/06/02 06:04:39;;;;;;;8.00;4.30;;;;;;;7.58;89.39;93450.77;1763061;79;21092;-83
2021/06/02 06:07:35;;;;;;;5.40;3.45;;;;;;;7.68;88.95;93450.08;1723213;81;21672;-84
2021/06/02 06:10:30;;;;;;;6.20;3.40;;;;;;;7.83;87.53;93459.08;1763338;80;21027;-82
2021/06/02 06:13:38;;;;;;;3.33;3.00;;;;;;;7.95;86.43;93452.00;1771315;80;21117;-85
2021/06/02 06:16:30;;;;;;;3.05;2.77;;;;;;;8.03;84.68;93451.46;1769013;79;21101;-83
2021/06/02 06:19:21;;;;;;;4.65;3.20;;;;;;;8.15;83.26;93451.14;1769136;80;21073;-83
2021/06/02 06:22:18;;;;;;;6.83;2.60;;;;;;;8.27;82.45;93446.78;1754012;80;21072;-85
2021/06/02 06:24:58;;;;;;;6.45;2.92;;;;;;;8.35;80.42;93448.95;1737784;82;21085;-81
2021/06/02 06:27:48;;;;;;;4.65;2.83;;;;;;;8.43;79.18;93447.84;1770881;79;21085;-84
2021/06/02 06:30:25;;;;;;;4.75;2.67;;;;;;;8.48;79.34;93445.34;1811247;79;21123;-83
2021/06/02 06:32:56;;;;;;;5.20;2.60;;;;;;;8.55;79.61;93444.61;1811100;79;21742;-83
2021/06/02 06:35:25;;;;;;;3.62;2.90;;;;;;;8.59;78.97;93447.52;1809588;79;21073;-82
2021/06/02 06:37:53;;;;;;;3.75;3.12;;;;;;;8.64;78.23;93452.56;1764535;81;21043;-85
2021/06/02 06:40:27;;;;;;;4.75;2.92;;;;;;;8.69;77.48;93452.80;1789636;77;21049;-84
2021/06/02 06:42:56;;;;;;;6.97;2.87;;;;;;;8.73;77.56;93460.36;1794832;78;21074;-85
2021/06/02 06:45:32;;;;;;;4.25;3.20;;;;;;;8.75;75.18;93453.37;1789138;79;21077;-82
2021/06/02 06:48:05;;;;;;;2.67;2.42;;;;;;;8.79;75.23;93453.97;1783239;79;21033;-85
2021/06/02 06:50:32;;;;;;;3.00;2.47;;;;;;;8.80;75.85;93447.39;1783813;79;21127;-83
2021/06/02 06:53:04;;;;;;;5.50;2.90;;;;;;;8.84;76.38;93449.53;1783831;80;21073;-83
2021/06/02 06:55:31;;;;;;;6.22;3.42;;;;;;;8.85;75.14;93449.75;1786407;79;21107;-85
2021/06/02 06:57:57;;;;;;;4.53;3.70;;;;;;;8.85;74.85;93439.67;1784434;78;21108;-85
2021/06/02 07:00:25;;;;;;;3.98;2.75;;;;;;;8.87;75.95;93449.54;1782255;79;21002;-82
2021/06/02 07:02:52;;;;;;;3.30;2.98;;;;;;;8.88;76.33;93450.34;1782405;78;21160;-81
2021/06/02 07:05:19;;;;;;;8.83;3.47;;;;;;;8.88;76.72;93451.11;1782899;80;21617;-81
2021/06/02 07:07:45;;;;;;;4.85;3.22;;;;;;;8.89;76.86;93454.59;1782663;79;21111;-82
2021/06/02 07:10:14;;;;;;;7.28;3.58;;;;;;;8.90;77.22;93448.78;1783505;79;21011;-82
2021/06/02 07:12:42;;;;;;;8.05;3.40;;;;;;;8.97;77.97;93457.52;1782776;80;21631;-83
2021/06/02 07:15:10;;;;;;;15.90;3.55;;;;;;;9.05;78.54;93452.30;1783603;79;21576;-85
2021/06/02 07:17:45;;;;;;;5.03;3.40;;;;;;;9.14;78.02;93455.99;1783672;79;21040;-83
2021/06/02 07:20:25;;;;;;;8.80;2.92;;;;;;;9.25;77.72;93459.50;1782302;80;21103;-82
2021/06/02 07:22:52;;;;;;;5.33;2.85;;;;;;;9.36;76.92;93459.53;1762756;80;21036;-83
2021/06/02 07:25:23;;;;;;;5.90;2.77;;;;;;;9.45;76.22;93447.73;1789696;78;21655;-85
2021/06/02 07:27:49;;;;;;;3.40;3.08;;;;;;;9.51;74.37;93452.95;1809665;77;21012;-82
2021/06/02 07:30:17;;;;;;;4.15;2.85;;;;;;;9.55;72.00;93447.52;1810786;78;21064;-83
2021/06/02 07:32:44;;;;;;;4.33;2.60;;;;;;;9.57;73.50;93456.84;1788383;78;21543;-82
2021/06/02 07:35:11;;;;;;;2.92;2.62;;;;;;;9.62;74.21;93456.44;1809896;79;21739;-83
2021/06/02 07:37:38;;;;;;;3.12;2.50;;;;;;;9.68;74.21;93458.20;1790337;78;21042;-83
2021/06/02 07:40:05;;;;;;;5.53;2.62;;;;;;;9.71;73.89;93459.56;1774144;79;21263;-83
2021/06/02 07:42:32;;;;;;;5.53;3.00;;;;;;;9.73;73.86;93464.00;1806179;78;21040;-84
2021/06/02 07:45:00;;;;;;;4.45;3.20;;;;;;;9.75;72.48;93464.99;1804206;79;21881;-84
2021/06/02 07:47:27;;;;;;;5.28;2.85;;;;;;;9.76;72.48;93467.89;1802435;79;21035;-82
2021/06/02 07:49:55;;;;;;;4.33;3.60;;;;;;;9.80;72.07;93463.23;1808007;78;21071;-84
2021/06/02 07:52:24;;;;;;;7.15;2.70;;;;;;;9.85;72.54;93472.34;1796221;78;21067;-81
2021/06/02 07:54:51;;;;;;;8.50;3.60;;;;;;;9.88;72.08;93470.21;1758582;81;21018;-83
2021/06/02 07:57:18;;;;;;;8.60;3.67;;;;;;;9.90;68.93;93469.84;1768679;81;21126;-84
2021/06/02 07:59:44;;;;;;;6.10;2.72;;;;;;;9.85;69.36;93462.84;1768196;81;21551;-86
2021/06/02 08:02:10;;;;;;;4.40;2.60;;;;;;;9.83;69.95;93463.05;1769146;79;21080;-86
2021/06/02 08:04:36;;;;;;;3.70;2.40;;;;;;;9.82;69.35;93466.35;1769240;80;21091;-85
2021/06/02 08:07:05;;;;;;;5.37;2.35;;;;;;;9.84;69.47;93465.36;1769502;81;21006;-84
2021/06/02 08:09:32;;;;;;;6.17;2.80;;;;;;;9.89;70.32;93464.19;1769174;81;21579;-86
2021/06/02 08:11:59;;;;;;;3.27;2.40;;;;;;;9.94;69.88;93466.53;1768453;81;21041;-87
2021/06/02 08:14:25;;;;;;;4.50;2.40;;;;;;;10.00;70.49;93463.60;1769375;81;21019;-84
2021/06/02 08:16:52;;;;;;;6.58;2.33;;;;;;;10.07;69.43;93465.55;1768807;81;21092;-81
2021/06/02 08:19:18;;;;;;;5.10;2.17;;;;;;;10.12;68.04;93461.09;1769799;79;21031;-84
2021/06/02 08:21:45;;;;;;;6.03;3.87;;;;;;;10.15;69.17;93468.44;1761781;80;21081;-83
2021/06/02 08:24:12;;;;;;;6.97;3.77;;;;;;;10.18;69.52;93468.43;1718660;83;21465;-83
2021/06/02 08:26:40;;;;;;;3.15;2.62;;;;;;;10.22;67.83;93467.06;1718715;83;21116;-82
2021/06/02 08:29:06;;;;;;;4.83;2.55;;;;;;;10.24;68.72;93468.83;1740156;79;21077;-83
2021/06/02 08:31:34;;;;;;;4.53;3.15;;;;;;;10.24;67.08;93473.48;1740363;81;21043;-84
2021/06/02 08:34:01;;;;;;;4.90;2.40;;;;;;;10.20;61.80;93470.77;1732379;82;21466;-84
2021/06/02 08:36:28;;;;;;;8.55;3.00;;;;;;;10.18;64.71;93460.86;1733970;82;21024;-85
2021/06/02 08:38:55;;;;;;;9.03;3.00;;;;;;;10.17;63.71;93462.04;1734380;82;21522;-82
2021/06/02 08:41:21;;;;;;;2.42;2.12;;;;;;;10.16;64.19;93467.29;1786492;77;21029;-83
2021/06/02 08:43:49;;;;;;;3.70;2.40;;;;;;;10.13;64.69;93468.06;1785942;80;21578;-81
2021/06/02 08:46:17;;;;;;;3.17;2.92;;;;;;;10.12;65.37;93463.22;1785787;80;21804;-87
2021/06/02 08:48:45;;;;;;;6.25;2.90;;;;;;;10.09;64.26;93465.94;1782871;80;21109;-86
2021/06/02 08:51:13;;;;;;;3.72;2.98;;;;;;;10.05;62.88;93465.17;1773607;79;21035;-85
2021/06/02 08:53:41;;;;;;;2.45;2.25;;;;;;;9.98;63.79;93464.00;1809982;79;21527;-84
2021/06/02 08:56:07;;;;;;;5.40;2.42;;;;;;;9.94;64.13;93467.31;1776478;79;21022;-84
2021/06/02 08:58:34;;;;;;;6.33;5.20;;;;;;;9.91;64.48;93477.59;1793916;78;21072;-83
2021/06/02 09:01:00;;;;;;;5.45;4.92;;;;;;;9.91;64.68;93474.09;1804843;78;21008;-84
2021/06/02 09:03:31;;;;;;;4.58;3.15;;;;;;;9.90;64.32;93473.33;1805091;79;21016;-85
2021/06/02 09:05:58;;;;;;;6.90;3.33;;;;;;;9.90;64.26;93468.48;1770570;80;21014;-86
2021/06/02 09:08:27;;;;;;;5.15;3.77;;;;;;;9.89;64.60;93476.41;1807550;79;21052;-85
2021/06/02 09:10:55;;;;;;;4.28;3.58;;;;;;;9.87;63.78;93474.69;1779553;79;20961;-86
2021/06/02 09:13:23;;;;;;;7.17;3.62;;;;;;;9.88;64.97;93467.49;1737202;81;21033;-86
2021/06/02 09:16:06;;;;;;;4.60;2.83;;;;;;;9.93;64.93;93478.57;1776955;79;21022;-83
2021/06/02 09:18:34;;;;;;;3.35;2.25;;;;;;;9.96;65.39;93470.98;1805338;79;21227;-86
2021/06/02 09:21:02;;;;;;;2.80;2.50;;;;;;;10.00;65.68;93464.19;1810968;79;21562;-83
2021/06/02 09:23:41;;;;;;;11.63;3.40;;;;;;;10.01;65.78;93473.91;1754604;79;21117;-83
2021/06/02 09:26:18;;;;;;;4.03;2.20;;;;;;;10.04;66.53;93465.76;1796114;79;21617;-81
2021/06/02 09:28:49;;;;;;;11.00;8.13;;;;;;;10.10;67.51;93464.77;1796820;79;21524;-85
2021/06/02 09:31:40;;;;;;;8.90;5.97;;;;;;;10.15;63.17;93464.36;1795059;79;21021;-84
2021/06/02 09:34:17;;;;;;;5.33;3.50;;;;;;;10.20;63.76;93462.63;1778611;80;21039;-84
2021/06/02 09:36:52;;;;;;;4.45;2.70;;;;;;;10.26;63.28;93461.07;1726577;82;21153;-84
2021/06/02 09:39:18;;;;;;;5.45;2.75;;;;;;;10.31;64.31;93459.33;1759035;80;20943;-86
2021/06/02 09:41:47;;;;;;;4.00;2.50;;;;;;;10.37;63.91;93464.54;1790319;79;21104;-83
2021/06/02 09:44:22;;;;;;;5.33;2.42;;;;;;;10.41;64.86;93461.81;1787882;79;20989;-83
2021/06/02 09:47:09;;;;;;;5.08;2.98;;;;;;;10.43;63.89;93462.20;1791971;79;26904;-86
2021/06/02 09:49:55;;;;;;;7.37;3.62;;;;;;;10.40;63.49;93462.41;1765709;80;21654;-83
2021/06/02 09:52:47;;;;;;;4.15;3.85;;;;;;;10.36;63.81;93467.66;1766860;80;21095;-82
2021/06/02 09:55:28;;;;;;;5.00;3.55;;;;;;;10.29;64.41;93467.09;1773467;78;20954;-84
2021/06/02 09:58:10;;;;;;;4.10;3.42;;;;;;;10.23;64.18;93468.64;1798216;78;21517;-85
2021/06/02 10:00:48;;;;;;;3.37;3.02;;;;;;;10.17;64.40;93475.63;1756678;79;21576;-84
2021/06/02 10:03:18;;;;;;;5.58;4.70;;;;;;;10.10;64.38;93475.05;1797304;79;21187;-87
2021/06/02 10:05:49;;;;;;;4.72;3.30;;;;;;;10.07;65.03;93481.25;1785140;80;21052;-85
2021/06/02 10:08:35;;;;;;;5.20;3.00;;;;;;;10.04;64.99;93483.42;1783621;80;21507;-87
2021/06/02 10:11:13;;;;;;;7.92;5.85;;;;;;;10.01;63.05;93477.98;1780876;79;21521;-84
2021/06/02 10:13:39;;;;;;;5.87;3.87;;;;;;;9.95;62.76;93484.37;1768599;80;21067;-83
2021/06/02 10:16:09;;;;;;;8.13;4.53;;;;;;;9.88;62.35;93490.58;1790242;79;20987;-84
2021/06/02 10:18:38;;;;;;;9.43;3.87;;;;;;;9.81;61.34;93489.80;1794651;79;21011;-84
2021/06/02 10:21:12;;;;;;;10.38;7.47;;;;;;;9.78;61.08;93485.95;1774411;80;21048;-84
2021/06/02 10:23:43;;;;;;;3.52;3.22;;;;;;;9.80;61.66;93496.41;1792091;80;21002;-85
2021/06/02 10:26:14;;;;;;;4.58;3.17;;;;;;;9.86;62.36;93498.95;1789952;80;20939;-82
2021/06/02 10:28:43;;;;;;;5.22;3.40;;;;;;;9.93;61.52;93489.44;1786994;80;21488;-85
2021/06/02 10:31:11;;;;;;;4.42;2.25;;;;;;;10.00;60.60;93492.71;1786848;80;20943;-84
2021/06/02 10:36:08;;;;;;;5.10;3.25;;;;;;;10.12;58.17;93502.62;1786719;80;21029;-79
2021/06/02 10:38:53;;;;;;;3.52;2.77;;;;;;;10.17;59.56;93496.78;1787496;80;20950;-82
2021/06/02 10:41:30;;;;;;;5.12;2.58;;;;;;;10.23;60.69;93497.17;1788558;80;21157;-80
2021/06/02 10:44:13;;;;;;;2.98;2.65;;;;;;;10.29;59.73;93491.55;1815003;78;21522;-85
2021/06/02 10:46:44;;;;;;;5.57;2.60;;;;;;;10.34;59.50;93503.95;1838925;78;20909;-82
2021/06/02 10:49:11;;;;;;;3.92;2.80;;;;;;;10.37;58.77;93496.38;1818623;78;21016;-82
2021/06/02 10:51:42;;;;;;;2.77;2.30;;;;;;;10.37;59.11;93498.52;1782759;80;21037;-84
2021/06/02 10:54:19;;;;;;;4.78;2.95;;;;;;;10.36;60.94;93499.69;1842917;77;21057;-88
2021/06/02 10:57:07;;;;;;;3.22;2.47;;;;;;;10.32;59.78;93509.02;1791141;77;21025;-87
2021/06/02 10:59:43;;;;;;;5.45;3.42;;;;;;;10.25;59.38;93513.88;1793110;79;20991;-87
2021/06/02 11:02:19;;;;;;;5.00;3.33;;;;;;;10.19;59.14;93514.04;1826053;77;21033;-87
2021/06/02 11:05:02;;;;;;;7.05;2.50;;;;;;;10.16;58.38;93508.05;1822287;77;21048;-89
2021/06/02 11:07:33;;;;;;;10.68;2.90;;;;;;;10.13;58.68;93505.52;1785728;79;21109;-89
2021/06/02 11:10:12;;;;;;;4.72;2.52;;;;;;;10.16;60.21;93508.05;1797606;79;21297;-86
2021/06/02 11:12:52;;;;;;;3.02;2.72;;;;;;;10.22;60.91;93501.81;1787108;80;21038;-85
2021/06/02 11:15:43;;;;;;;4.80;2.27;;;;;;;10.36;60.17;93503.00;1826545;78;21039;-85
2021/06/02 11:18:18;;;;;;;6.75;2.85;;;;;;;10.53;60.21;93501.39;1830814;78;20990;-83
2021/06/02 11:20:57;;;;;;;3.15;2.05;;;;;;;10.71;60.12;93498.05;1848731;77;21102;-86
2021/06/02 11:23:32;;;;;;;5.12;2.50;;;;;;;10.90;61.52;93506.33;1807594;77;21105;-79
2021/06/02 11:26:25;;;;;;;2.50;2.17;;;;;;;11.04;59.48;93495.98;1763904;80;21080;-82
2021/06/02 11:28:53;;;;;;;4.83;2.90;;;;;;;11.16;59.06;93492.22;1766183;79;21548;-83
2021/06/02 11:31:30;;;;;;;7.65;3.90;;;;;;;11.24;57.22;93495.67;1795922;79;21194;-82
2021/06/02 11:34:00;;;;;;;2.85;2.27;;;;;;;11.26;58.13;93502.88;1769595;81;21178;-83
2021/06/02 11:36:27;;;;;;;4.42;2.55;;;;;;;11.27;59.43;93503.64;1775280;80;21046;-83
2021/06/02 11:38:54;;;;;;;7.95;4.58;;;;;;;11.23;59.05;93498.22;1828793;77;21061;-88
2021/06/02 11:41:20;;;;;;;4.95;2.92;;;;;;;11.19;59.03;93498.83;1782197;77;21604;-83
2021/06/02 11:43:47;;;;;;;8.75;4.28;;;;;;;11.15;59.49;93509.73;1747865;80;21018;-84
2021/06/02 11:46:13;;;;;;;6.47;3.98;;;;;;;11.07;58.24;93513.66;1786928;80;21082;-83
2021/06/02 11:48:40;;;;;;;7.33;3.12;;;;;;;11.00;58.01;93515.63;1774208;80;21029;-82
2021/06/02 11:51:07;;;;;;;4.67;2.87;;;;;;;10.90;57.97;93515.84;1752688;80;21061;-82
2021/06/02 11:53:41;;;;;;;8.25;3.72;;;;;;;10.84;57.55;93522.89;1785679;79;21081;-81
2021/06/02 11:56:08;;;;;;;3.37;2.90;;;;;;;10.79;59.38;93519.96;1811217;79;21062;-86
2021/06/02 11:58:34;;;;;;;8.45;6.62;;;;;;;10.78;60.19;93520.37;1804494;78;21722;-84
2021/06/02 12:01:01;;;;;;;6.67;3.77;;;;;;;10.75;59.04;93517.84;1778228;80;21025;-81
2021/06/02 12:03:28;;;;;;;4.92;3.52;;;;;;;10.79;58.94;93517.24;1810391;77;21042;-81
2021/06/02 12:05:55;;;;;;;3.77;2.70;;;;;;;10.84;59.83;93514.73;1787897;78;21206;-81
2021/06/02 12:08:22;;;;;;;5.53;2.40;;;;;;;10.92;60.83;93506.13;1775255;79;21147;-83
2021/06/02 12:10:57;;;;;;;4.08;2.87;;;;;;;11.01;60.43;93501.63;1765184;80;21080;-79
2021/06/02 12:13:34;;;;;;;6.85;2.75;;;;;;;11.08;60.56;93497.51;1745644;78;21296;-82
2021/06/02 12:16:04;;;;;;;;;;;;;;;11.17;59.99;93507.39;1747863;81;21125;-82
2021/06/02 12:18:43;;;;;;;4.47;2.52;;;;;;;11.21;59.19;93510.10;1804962;78;20166;-84
2021/06/02 12:21:19;;;;;;;6.55;2.92;;;;;;;11.20;58.29;93505.81;1757561;79;21011;-85
2021/06/02 12:23:54;;;;;;;5.08;2.72;;;;;;;11.20;58.65;93513.98;1786106;79;21158;-83
2021/06/02 12:26:27;;;;;;;3.45;2.75;;;;;;;11.22;58.39;93506.20;1810277;77;21488;-86
2021/06/02 12:28:57;;;;;;;4.42;2.80;;;;;;;11.26;59.24;93508.91;1802290;78;21068;-85
2021/06/02 12:31:42;;;;;;;3.80;2.75;;;;;;;11.33;60.13;93502.84;1778827;79;21010;-85
2021/06/02 12:34:21;;;;;;;3.33;2.47;;;;;;;11.42;57.42;93510.56;1813226;79;21057;-88
2021/06/02 12:36:55;;;;;;;3.33;2.52;;;;;;;11.46;58.14;93496.34;1805531;79;21136;-87
2021/06/02 12:39:28;;;;;;;;;;;;;;;11.48;58.21;93498.68;1809689;78;21015;-87
2021/06/02 12:41:57;;;;;;;4.05;3.08;;;;;;;11.47;57.84;93504.72;1807906;78;20189;-83